sensor_id;sensor_type;location;lat;lon;timestamp;temperature;humidity
7461;DHT22;6757;52.258;12.840;2022-09-09T00:01:03;13.60;99.90
7461;DHT22;6757;52.258;12.840;2022-09-09T00:03:44;13.20;99.90
7461;DHT22;6757;52.258;12.840;2022-09-09T00:06:21;13.60;99.90
7461;DHT22;6757;52.258;12.840;2022-09-09T00:09:00;13.20;99.90
7461;DHT22;6757;52.258;12.840;2022-09-09T00:11:36;13.70;99.90
7461;DHT22;6757;52.258;12.840;2022-09-09T00:14:13;13.10;99.90
7461;DHT22;6757;52.258;12.840;2022-09-09T00:16:47;13.50;99.90
7461;DHT22;6757;52.258;12.840;2022-09-09T00:19:22;13.10;99.90
7461;DHT22;6757;52.258;12.840;2022-09-09T00:21:58;13.30;99.90
7461;DHT22;6757;52.258;12.840;2022-09-09T00:24:38;13.00;99.90
7461;DHT22;6757;52.258;12.840;2022-09-09T00:27:25;13.80;99.90
7461;DHT22;6757;52.258;12.840;2022-09-09T00:30:00;12.90;99.90
7461;DHT22;6757;52.258;12.840;2022-09-09T00:32:38;13.30;99.90
7461;DHT22;6757;52.258;12.840;2022-09-09T00:35:16;14.10;99.90
7461;DHT22;6757;52.258;12.840;2022-09-09T00:37:47;13.40;99.90
7461;DHT22;6757;52.258;12.840;2022-09-09T00:40:23;13.90;99.90
7461;DHT22;6757;52.258;12.840;2022-09-09T00:43:08;12.90;99.90
7461;DHT22;6757;52.258;12.840;2022-09-09T00:46:11;13.00;99.90
7461;DHT22;6757;52.258;12.840;2022-09-09T00:49:00;12.80;99.90
7461;DHT22;6757;52.258;12.840;2022-09-09T00:51:40;13.20;99.90
7461;DHT22;6757;52.258;12.840;2022-09-09T00:57:23;13.00;99.90
7461;DHT22;6757;52.258;12.840;2022-09-09T00:59:59;13.20;99.90
7461;DHT22;6757;52.258;12.840;2022-09-09T01:02:53;13.80;99.90
7461;DHT22;6757;52.258;12.840;2022-09-09T01:05:33;13.10;99.90
7461;DHT22;6757;52.258;12.840;2022-09-09T01:08:11;13.50;99.90
7461;DHT22;6757;52.258;12.840;2022-09-09T01:10:49;12.70;99.90
7461;DHT22;6757;52.258;12.840;2022-09-09T01:13:24;13.80;99.90
7461;DHT22;6757;52.258;12.840;2022-09-09T01:15:54;12.60;99.90
7461;DHT22;6757;52.258;12.840;2022-09-09T01:18:23;13.10;99.90
7461;DHT22;6757;52.258;12.840;2022-09-09T01:21:01;13.60;99.90
7461;DHT22;6757;52.258;12.840;2022-09-09T01:23:45;13.50;99.90
7461;DHT22;6757;52.258;12.840;2022-09-09T01:26:26;12.50;99.90
7461;DHT22;6757;52.258;12.840;2022-09-09T01:28:54;12.50;99.90
7461;DHT22;6757;52.258;12.840;2022-09-09T01:31:28;12.80;99.90
7461;DHT22;6757;52.258;12.840;2022-09-09T01:33:57;13.10;99.90
7461;DHT22;6757;52.258;12.840;2022-09-09T01:36:32;13.50;99.90
7461;DHT22;6757;52.258;12.840;2022-09-09T01:39:02;13.20;99.90
7461;DHT22;6757;52.258;12.840;2022-09-09T01:41:30;12.30;99.90
7461;DHT22;6757;52.258;12.840;2022-09-09T01:43:57;12.30;99.90
7461;DHT22;6757;52.258;12.840;2022-09-09T01:46:25;12.70;99.90
7461;DHT22;6757;52.258;12.840;2022-09-09T01:48:53;12.40;99.90
7461;DHT22;6757;52.258;12.840;2022-09-09T01:51:22;12.60;99.90
7461;DHT22;6757;52.258;12.840;2022-09-09T01:53:50;12.10;99.90
7461;DHT22;6757;52.258;12.840;2022-09-09T01:56:28;12.80;99.90
7461;DHT22;6757;52.258;12.840;2022-09-09T01:59:13;13.20;99.90
7461;DHT22;6757;52.258;12.840;2022-09-09T02:01:57;12.90;99.90
7461;DHT22;6757;52.258;12.840;2022-09-09T02:04:37;13.30;99.90
7461;DHT22;6757;52.258;12.840;2022-09-09T02:07:19;12.50;99.90
7461;DHT22;6757;52.258;12.840;2022-09-09T02:10:00;12.00;99.90
7461;DHT22;6757;52.258;12.840;2022-09-09T02:12:31;13.20;99.90
7461;DHT22;6757;52.258;12.840;2022-09-09T02:15:02;13.20;99.90
7461;DHT22;6757;52.258;12.840;2022-09-09T02:17:35;13.20;99.90
7461;DHT22;6757;52.258;12.840;2022-09-09T02:20:06;12.80;99.90
7461;DHT22;6757;52.258;12.840;2022-09-09T02:22:35;11.90;99.90
7461;DHT22;6757;52.258;12.840;2022-09-09T02:25:07;13.10;99.90
7461;DHT22;6757;52.258;12.840;2022-09-09T02:27:37;11.90;99.90
7461;DHT22;6757;52.258;12.840;2022-09-09T02:30:05;11.90;99.90
7461;DHT22;6757;52.258;12.840;2022-09-09T02:32:35;11.80;99.90
7461;DHT22;6757;52.258;12.840;2022-09-09T02:35:08;13.10;99.90
7461;DHT22;6757;52.258;12.840;2022-09-09T02:37:38;11.80;99.90
7461;DHT22;6757;52.258;12.840;2022-09-09T02:40:09;11.80;99.90
7461;DHT22;6757;52.258;12.840;2022-09-09T02:42:43;11.80;99.90
7461;DHT22;6757;52.258;12.840;2022-09-09T02:45:13;12.20;99.90
7461;DHT22;6757;52.258;12.840;2022-09-09T02:47:48;11.80;99.90
7461;DHT22;6757;52.258;12.840;2022-09-09T02:50:21;11.80;99.90
7461;DHT22;6757;52.258;12.840;2022-09-09T02:53:01;11.70;99.90
7461;DHT22;6757;52.258;12.840;2022-09-09T02:55:38;12.10;99.90
7461;DHT22;6757;52.258;12.840;2022-09-09T02:58:11;12.60;99.90
7461;DHT22;6757;52.258;12.840;2022-09-09T03:00:42;11.80;99.90
7461;DHT22;6757;52.258;12.840;2022-09-09T03:03:10;13.00;99.90
7461;DHT22;6757;52.258;12.840;2022-09-09T03:05:37;12.20;99.90
7461;DHT22;6757;52.258;12.840;2022-09-09T03:08:05;11.80;99.90
7461;DHT22;6757;52.258;12.840;2022-09-09T03:10:32;12.30;99.90
7461;DHT22;6757;52.258;12.840;2022-09-09T03:13:00;13.10;99.90
7461;DHT22;6757;52.258;12.840;2022-09-09T03:15:28;11.60;99.90
7461;DHT22;6757;52.258;12.840;2022-09-09T03:17:56;11.60;99.90
7461;DHT22;6757;52.258;12.840;2022-09-09T03:20:24;13.00;99.90
7461;DHT22;6757;52.258;12.840;2022-09-09T03:22:52;12.50;99.90
7461;DHT22;6757;52.258;12.840;2022-09-09T03:25:20;12.60;99.90
7461;DHT22;6757;52.258;12.840;2022-09-09T03:27:49;12.40;99.90
7461;DHT22;6757;52.258;12.840;2022-09-09T03:30:18;12.10;99.90
7461;DHT22;6757;52.258;12.840;2022-09-09T03:32:46;12.50;99.90
7461;DHT22;6757;52.258;12.840;2022-09-09T03:35:14;12.30;99.90
7461;DHT22;6757;52.258;12.840;2022-09-09T03:37:41;11.80;99.90
7461;DHT22;6757;52.258;12.840;2022-09-09T03:40:09;12.10;99.90
7461;DHT22;6757;52.258;12.840;2022-09-09T03:42:36;11.30;99.90
7461;DHT22;6757;52.258;12.840;2022-09-09T03:45:04;11.30;99.90
7461;DHT22;6757;52.258;12.840;2022-09-09T03:47:33;11.30;99.90
7461;DHT22;6757;52.258;12.840;2022-09-09T03:50:01;11.30;99.90
7461;DHT22;6757;52.258;12.840;2022-09-09T03:52:29;11.20;99.90
7461;DHT22;6757;52.258;12.840;2022-09-09T03:54:56;11.30;99.90
7461;DHT22;6757;52.258;12.840;2022-09-09T03:57:23;11.20;99.90
7461;DHT22;6757;52.258;12.840;2022-09-09T03:59:50;11.20;99.90
7461;DHT22;6757;52.258;12.840;2022-09-09T04:02:17;11.30;99.90
7461;DHT22;6757;52.258;12.840;2022-09-09T04:04:44;11.10;99.90
7461;DHT22;6757;52.258;12.840;2022-09-09T04:07:12;11.10;99.90
7461;DHT22;6757;52.258;12.840;2022-09-09T04:09:39;11.00;99.90
7461;DHT22;6757;52.258;12.840;2022-09-09T04:12:06;11.10;99.90
7461;DHT22;6757;52.258;12.840;2022-09-09T04:14:33;11.10;99.90
7461;DHT22;6757;52.258;12.840;2022-09-09T04:17:00;11.00;99.90
7461;DHT22;6757;52.258;12.840;2022-09-09T04:19:31;11.00;99.90
7461;DHT22;6757;52.258;12.840;2022-09-09T04:21:58;11.00;99.90
7461;DHT22;6757;52.258;12.840;2022-09-09T04:24:26;11.00;99.90
7461;DHT22;6757;52.258;12.840;2022-09-09T04:26:54;11.00;99.90
7461;DHT22;6757;52.258;12.840;2022-09-09T04:29:21;11.00;99.90
7461;DHT22;6757;52.258;12.840;2022-09-09T04:31:48;10.90;99.90
7461;DHT22;6757;52.258;12.840;2022-09-09T04:34:15;10.90;99.90
7461;DHT22;6757;52.258;12.840;2022-09-09T04:36:42;11.00;99.90
7461;DHT22;6757;52.258;12.840;2022-09-09T04:39:08;11.00;99.90
7461;DHT22;6757;52.258;12.840;2022-09-09T04:41:37;10.90;99.90
7461;DHT22;6757;52.258;12.840;2022-09-09T04:44:04;11.00;99.90
7461;DHT22;6757;52.258;12.840;2022-09-09T04:46:31;10.90;99.90
7461;DHT22;6757;52.258;12.840;2022-09-09T04:48:59;10.90;99.90
7461;DHT22;6757;52.258;12.840;2022-09-09T04:51:26;10.90;99.90
7461;DHT22;6757;52.258;12.840;2022-09-09T04:53:53;10.90;99.90
7461;DHT22;6757;52.258;12.840;2022-09-09T04:56:20;10.90;99.90
7461;DHT22;6757;52.258;12.840;2022-09-09T04:58:48;10.90;99.90
7461;DHT22;6757;52.258;12.840;2022-09-09T05:01:17;10.80;99.90
7461;DHT22;6757;52.258;12.840;2022-09-09T05:03:44;10.90;99.90
7461;DHT22;6757;52.258;12.840;2022-09-09T05:06:13;10.90;99.90
7461;DHT22;6757;52.258;12.840;2022-09-09T05:08:43;10.90;99.90
7461;DHT22;6757;52.258;12.840;2022-09-09T05:11:15;10.90;99.90
7461;DHT22;6757;52.258;12.840;2022-09-09T05:13:43;10.90;99.90
7461;DHT22;6757;52.258;12.840;2022-09-09T05:16:12;10.90;99.90
7461;DHT22;6757;52.258;12.840;2022-09-09T05:18:40;10.90;99.90
7461;DHT22;6757;52.258;12.840;2022-09-09T05:21:08;10.90;99.90
7461;DHT22;6757;52.258;12.840;2022-09-09T05:23:35;10.90;99.90
7461;DHT22;6757;52.258;12.840;2022-09-09T05:26:03;10.90;99.90
7461;DHT22;6757;52.258;12.840;2022-09-09T05:28:30;11.00;99.90
7461;DHT22;6757;52.258;12.840;2022-09-09T05:31:01;11.00;99.90
7461;DHT22;6757;52.258;12.840;2022-09-09T05:33:31;11.00;99.90
7461;DHT22;6757;52.258;12.840;2022-09-09T05:35:59;11.00;99.90
7461;DHT22;6757;52.258;12.840;2022-09-09T05:38:28;11.10;99.90
7461;DHT22;6757;52.258;12.840;2022-09-09T05:40:56;11.10;99.90
7461;DHT22;6757;52.258;12.840;2022-09-09T05:43:23;11.20;99.90
7461;DHT22;6757;52.258;12.840;2022-09-09T05:45:59;11.20;99.90
7461;DHT22;6757;52.258;12.840;2022-09-09T05:48:28;11.30;99.90
7461;DHT22;6757;52.258;12.840;2022-09-09T05:50:57;11.30;99.90
7461;DHT22;6757;52.258;12.840;2022-09-09T05:53:25;11.40;99.90
7461;DHT22;6757;52.258;12.840;2022-09-09T05:55:59;11.50;99.90
7461;DHT22;6757;52.258;12.840;2022-09-09T05:58:27;11.50;99.90
7461;DHT22;6757;52.258;12.840;2022-09-09T06:01:00;11.60;99.90
7461;DHT22;6757;52.258;12.840;2022-09-09T06:03:28;11.60;99.90
7461;DHT22;6757;52.258;12.840;2022-09-09T06:06:00;11.70;99.90
7461;DHT22;6757;52.258;12.840;2022-09-09T06:08:27;11.80;99.90
7461;DHT22;6757;52.258;12.840;2022-09-09T06:11:01;11.90;99.90
7461;DHT22;6757;52.258;12.840;2022-09-09T06:13:29;12.00;99.90
7461;DHT22;6757;52.258;12.840;2022-09-09T06:15:56;12.00;99.90
7461;DHT22;6757;52.258;12.840;2022-09-09T06:18:24;12.10;99.90
7461;DHT22;6757;52.258;12.840;2022-09-09T06:20:56;12.10;99.90
7461;DHT22;6757;52.258;12.840;2022-09-09T06:23:25;12.20;99.90
7461;DHT22;6757;52.258;12.840;2022-09-09T06:26:01;12.30;99.90
7461;DHT22;6757;52.258;12.840;2022-09-09T06:28:31;12.40;99.90
7461;DHT22;6757;52.258;12.840;2022-09-09T06:30:58;12.50;99.90
7461;DHT22;6757;52.258;12.840;2022-09-09T06:33:25;12.70;99.90
7461;DHT22;6757;52.258;12.840;2022-09-09T06:35:53;12.80;99.90
7461;DHT22;6757;52.258;12.840;2022-09-09T06:38:22;12.90;99.90
7461;DHT22;6757;52.258;12.840;2022-09-09T06:40:54;13.00;99.90
7461;DHT22;6757;52.258;12.840;2022-09-09T06:43:23;13.10;99.90
7461;DHT22;6757;52.258;12.840;2022-09-09T06:45:55;13.20;99.90
7461;DHT22;6757;52.258;12.840;2022-09-09T06:48:22;13.40;99.90
7461;DHT22;6757;52.258;12.840;2022-09-09T06:50:51;13.50;99.90
7461;DHT22;6757;52.258;12.840;2022-09-09T06:53:19;13.60;99.90
7461;DHT22;6757;52.258;12.840;2022-09-09T06:55:46;13.80;99.90
7461;DHT22;6757;52.258;12.840;2022-09-09T06:58:14;13.90;99.90
7461;DHT22;6757;52.258;12.840;2022-09-09T07:00:41;14.00;99.90
7461;DHT22;6757;52.258;12.840;2022-09-09T07:03:09;14.20;99.90
7461;DHT22;6757;52.258;12.840;2022-09-09T07:05:36;14.20;99.90
7461;DHT22;6757;52.258;12.840;2022-09-09T07:08:03;14.30;99.90
7461;DHT22;6757;52.258;12.840;2022-09-09T07:10:30;14.40;99.90
7461;DHT22;6757;52.258;12.840;2022-09-09T07:12:59;14.40;99.90
7461;DHT22;6757;52.258;12.840;2022-09-09T07:15:28;14.50;99.90
7461;DHT22;6757;52.258;12.840;2022-09-09T07:17:55;14.60;99.90
7461;DHT22;6757;52.258;12.840;2022-09-09T07:20:27;14.70;99.90
7461;DHT22;6757;52.258;12.840;2022-09-09T07:22:55;14.80;99.90
7461;DHT22;6757;52.258;12.840;2022-09-09T07:25:23;14.90;99.90
7461;DHT22;6757;52.258;12.840;2022-09-09T07:27:52;15.00;99.90
7461;DHT22;6757;52.258;12.840;2022-09-09T07:30:18;15.20;99.90
7461;DHT22;6757;52.258;12.840;2022-09-09T07:32:47;15.30;99.90
7461;DHT22;6757;52.258;12.840;2022-09-09T07:35:14;15.30;99.90
7461;DHT22;6757;52.258;12.840;2022-09-09T07:37:40;15.50;99.90
7461;DHT22;6757;52.258;12.840;2022-09-09T07:40:08;15.60;99.90
7461;DHT22;6757;52.258;12.840;2022-09-09T07:42:35;15.70;99.90
7461;DHT22;6757;52.258;12.840;2022-09-09T07:45:03;15.80;99.90
7461;DHT22;6757;52.258;12.840;2022-09-09T07:47:31;15.90;99.90
7461;DHT22;6757;52.258;12.840;2022-09-09T07:50:00;15.90;99.90
7461;DHT22;6757;52.258;12.840;2022-09-09T07:52:27;16.00;99.90
7461;DHT22;6757;52.258;12.840;2022-09-09T07:54:53;16.10;99.90
7461;DHT22;6757;52.258;12.840;2022-09-09T07:57:21;16.20;99.90
7461;DHT22;6757;52.258;12.840;2022-09-09T07:59:48;16.30;99.90
7461;DHT22;6757;52.258;12.840;2022-09-09T08:02:16;16.40;99.90
7461;DHT22;6757;52.258;12.840;2022-09-09T08:04:42;16.50;99.90
7461;DHT22;6757;52.258;12.840;2022-09-09T08:07:11;16.60;99.90
7461;DHT22;6757;52.258;12.840;2022-09-09T08:09:38;16.70;99.90
7461;DHT22;6757;52.258;12.840;2022-09-09T08:12:05;16.80;99.90
7461;DHT22;6757;52.258;12.840;2022-09-09T08:14:34;16.90;99.90
7461;DHT22;6757;52.258;12.840;2022-09-09T08:17:01;17.00;99.90
7461;DHT22;6757;52.258;12.840;2022-09-09T08:19:28;17.10;99.90
7461;DHT22;6757;52.258;12.840;2022-09-09T08:21:56;17.10;99.90
7461;DHT22;6757;52.258;12.840;2022-09-09T08:24:24;17.20;99.90
7461;DHT22;6757;52.258;12.840;2022-09-09T08:26:51;17.30;99.90
7461;DHT22;6757;52.258;12.840;2022-09-09T08:29:19;17.40;99.90
7461;DHT22;6757;52.258;12.840;2022-09-09T08:31:47;17.50;99.90
7461;DHT22;6757;52.258;12.840;2022-09-09T08:34:15;17.50;99.90
7461;DHT22;6757;52.258;12.840;2022-09-09T08:36:44;17.60;99.90
7461;DHT22;6757;52.258;12.840;2022-09-09T08:39:13;17.70;99.90
7461;DHT22;6757;52.258;12.840;2022-09-09T08:41:57;17.70;99.90
7461;DHT22;6757;52.258;12.840;2022-09-09T08:44:43;17.70;99.90
7461;DHT22;6757;52.258;12.840;2022-09-09T08:47:23;17.90;99.90
7461;DHT22;6757;52.258;12.840;2022-09-09T08:50:03;18.00;99.90
7461;DHT22;6757;52.258;12.840;2022-09-09T08:52:39;18.10;99.90
7461;DHT22;6757;52.258;12.840;2022-09-09T08:55:19;18.20;99.90
7461;DHT22;6757;52.258;12.840;2022-09-09T08:57:53;18.30;99.90
7461;DHT22;6757;52.258;12.840;2022-09-09T09:00:22;18.40;99.90
7461;DHT22;6757;52.258;12.840;2022-09-09T09:02:56;18.50;99.90
7461;DHT22;6757;52.258;12.840;2022-09-09T09:05:30;18.50;99.90
7461;DHT22;6757;52.258;12.840;2022-09-09T09:08:06;18.60;99.90
7461;DHT22;6757;52.258;12.840;2022-09-09T09:10:45;18.70;99.90
7461;DHT22;6757;52.258;12.840;2022-09-09T09:13:18;18.80;99.90
7461;DHT22;6757;52.258;12.840;2022-09-09T09:15:52;18.90;99.90
7461;DHT22;6757;52.258;12.840;2022-09-09T09:18:22;19.00;99.90
7461;DHT22;6757;52.258;12.840;2022-09-09T09:21:00;19.10;99.90
7461;DHT22;6757;52.258;12.840;2022-09-09T09:23:39;19.10;99.90
7461;DHT22;6757;52.258;12.840;2022-09-09T09:26:10;19.20;99.90
7461;DHT22;6757;52.258;12.840;2022-09-09T09:28:40;19.20;99.90
7461;DHT22;6757;52.258;12.840;2022-09-09T09:31:09;19.20;99.90
7461;DHT22;6757;52.258;12.840;2022-09-09T09:33:45;19.20;99.90
7461;DHT22;6757;52.258;12.840;2022-09-09T09:36:15;19.30;99.90
7461;DHT22;6757;52.258;12.840;2022-09-09T09:38:53;19.30;99.90
7461;DHT22;6757;52.258;12.840;2022-09-09T09:41:32;19.30;99.90
7461;DHT22;6757;52.258;12.840;2022-09-09T09:44:03;19.40;99.90
7461;DHT22;6757;52.258;12.840;2022-09-09T09:46:30;19.40;99.90
7461;DHT22;6757;52.258;12.840;2022-09-09T09:48:59;19.40;99.90
7461;DHT22;6757;52.258;12.840;2022-09-09T09:51:26;19.40;99.90
7461;DHT22;6757;52.258;12.840;2022-09-09T09:54:07;19.50;99.90
7461;DHT22;6757;52.258;12.840;2022-09-09T09:56:36;19.50;99.90
7461;DHT22;6757;52.258;12.840;2022-09-09T09:59:04;19.60;99.90
7461;DHT22;6757;52.258;12.840;2022-09-09T10:01:32;19.60;99.90
7461;DHT22;6757;52.258;12.840;2022-09-09T10:04:02;19.70;99.90
7461;DHT22;6757;52.258;12.840;2022-09-09T10:06:39;19.80;99.90
7461;DHT22;6757;52.258;12.840;2022-09-09T10:09:21;19.80;99.90
7461;DHT22;6757;52.258;12.840;2022-09-09T10:11:55;19.90;99.90
7461;DHT22;6757;52.258;12.840;2022-09-09T10:14:30;19.90;99.90
7461;DHT22;6757;52.258;12.840;2022-09-09T10:17:13;19.90;99.90
7461;DHT22;6757;52.258;12.840;2022-09-09T10:19:53;20.30;99.90
7461;DHT22;6757;52.258;12.840;2022-09-09T10:22:27;20.00;99.90
7461;DHT22;6757;52.258;12.840;2022-09-09T10:28:29;20.20;99.90
7461;DHT22;6757;52.258;12.840;2022-09-09T10:31:17;20.40;99.90
7461;DHT22;6757;52.258;12.840;2022-09-09T10:33:51;20.50;99.90
7461;DHT22;6757;52.258;12.840;2022-09-09T10:36:24;20.60;99.90
7461;DHT22;6757;52.258;12.840;2022-09-09T10:38:57;20.70;99.90
7461;DHT22;6757;52.258;12.840;2022-09-09T10:41:44;20.80;99.90
7461;DHT22;6757;52.258;12.840;2022-09-09T10:44:41;20.90;99.90
7461;DHT22;6757;52.258;12.840;2022-09-09T10:47:29;21.00;99.90
7461;DHT22;6757;52.258;12.840;2022-09-09T10:50:18;21.10;99.90
7461;DHT22;6757;52.258;12.840;2022-09-09T10:53:11;21.20;99.90
7461;DHT22;6757;52.258;12.840;2022-09-09T10:55:43;21.30;99.90
7461;DHT22;6757;52.258;12.840;2022-09-09T10:58:16;21.40;99.90
7461;DHT22;6757;52.258;12.840;2022-09-09T11:00:50;21.50;99.90
7461;DHT22;6757;52.258;12.840;2022-09-09T11:03:23;21.60;99.90
7461;DHT22;6757;52.258;12.840;2022-09-09T11:05:55;21.70;99.90
7461;DHT22;6757;52.258;12.840;2022-09-09T11:08:26;21.80;99.90
7461;DHT22;6757;52.258;12.840;2022-09-09T11:10:58;21.90;99.90
7461;DHT22;6757;52.258;12.840;2022-09-09T11:13:34;22.00;99.90
7461;DHT22;6757;52.258;12.840;2022-09-09T11:16:14;22.10;99.90
7461;DHT22;6757;52.258;12.840;2022-09-09T11:18:46;22.10;99.90
7461;DHT22;6757;52.258;12.840;2022-09-09T11:21:17;22.20;99.90
7461;DHT22;6757;52.258;12.840;2022-09-09T11:23:52;22.20;99.90
7461;DHT22;6757;52.258;12.840;2022-09-09T11:26:27;22.20;99.90
7461;DHT22;6757;52.258;12.840;2022-09-09T11:29:08;22.10;99.90
7461;DHT22;6757;52.258;12.840;2022-09-09T11:31:46;22.10;99.90
7461;DHT22;6757;52.258;12.840;2022-09-09T11:34:36;22.10;99.90
7461;DHT22;6757;52.258;12.840;2022-09-09T11:37:21;22.10;99.90
7461;DHT22;6757;52.258;12.840;2022-09-09T11:40:17;22.20;99.90
7461;DHT22;6757;52.258;12.840;2022-09-09T11:42:46;22.20;99.90
7461;DHT22;6757;52.258;12.840;2022-09-09T11:45:23;22.30;99.90
7461;DHT22;6757;52.258;12.840;2022-09-09T11:47:55;22.40;99.90
7461;DHT22;6757;52.258;12.840;2022-09-09T11:50:31;22.50;99.90
7461;DHT22;6757;52.258;12.840;2022-09-09T11:53:14;22.80;99.90
7461;DHT22;6757;52.258;12.840;2022-09-09T11:55:46;23.00;99.90
7461;DHT22;6757;52.258;12.840;2022-09-09T11:58:17;23.40;99.90
7461;DHT22;6757;52.258;12.840;2022-09-09T12:00:47;23.60;99.90
7461;DHT22;6757;52.258;12.840;2022-09-09T12:03:34;23.70;99.90
7461;DHT22;6757;52.258;12.840;2022-09-09T12:06:13;23.70;99.90
7461;DHT22;6757;52.258;12.840;2022-09-09T12:08:45;23.70;99.90
7461;DHT22;6757;52.258;12.840;2022-09-09T12:11:24;23.50;99.90
7461;DHT22;6757;52.258;12.840;2022-09-09T12:13:54;23.40;99.90
7461;DHT22;6757;52.258;12.840;2022-09-09T12:16:32;23.30;99.90
7461;DHT22;6757;52.258;12.840;2022-09-09T12:19:05;23.20;99.90
7461;DHT22;6757;52.258;12.840;2022-09-09T12:21:39;23.20;99.90
7461;DHT22;6757;52.258;12.840;2022-09-09T12:24:11;23.10;99.90
7461;DHT22;6757;52.258;12.840;2022-09-09T12:26:42;23.00;99.90
7461;DHT22;6757;52.258;12.840;2022-09-09T12:29:20;22.90;99.90
7461;DHT22;6757;52.258;12.840;2022-09-09T12:31:56;22.80;99.90
7461;DHT22;6757;52.258;12.840;2022-09-09T12:34:34;22.70;99.90
7461;DHT22;6757;52.258;12.840;2022-09-09T12:37:14;22.60;99.90
7461;DHT22;6757;52.258;12.840;2022-09-09T12:39:47;22.50;99.90
7461;DHT22;6757;52.258;12.840;2022-09-09T12:42:18;22.40;99.90
7461;DHT22;6757;52.258;12.840;2022-09-09T12:44:56;22.30;99.90
7461;DHT22;6757;52.258;12.840;2022-09-09T12:47:29;22.20;99.90
7461;DHT22;6757;52.258;12.840;2022-09-09T12:50:00;22.10;99.90
7461;DHT22;6757;52.258;12.840;2022-09-09T12:52:31;21.90;99.90
7461;DHT22;6757;52.258;12.840;2022-09-09T12:55:01;21.80;99.90
7461;DHT22;6757;52.258;12.840;2022-09-09T12:57:34;21.70;99.90
7461;DHT22;6757;52.258;12.840;2022-09-09T13:00:10;21.50;99.90
7461;DHT22;6757;52.258;12.840;2022-09-09T13:02:47;21.30;99.90
7461;DHT22;6757;52.258;12.840;2022-09-09T13:05:19;21.10;99.90
7461;DHT22;6757;52.258;12.840;2022-09-09T13:07:49;21.00;99.90
7461;DHT22;6757;52.258;12.840;2022-09-09T13:10:24;21.00;99.90
7461;DHT22;6757;52.258;12.840;2022-09-09T13:12:53;21.00;99.90
7461;DHT22;6757;52.258;12.840;2022-09-09T13:15:23;21.00;99.90
7461;DHT22;6757;52.258;12.840;2022-09-09T13:17:53;21.10;99.90
7461;DHT22;6757;52.258;12.840;2022-09-09T13:20:23;21.30;99.90
7461;DHT22;6757;52.258;12.840;2022-09-09T13:22:53;21.50;99.90
7461;DHT22;6757;52.258;12.840;2022-09-09T13:25:23;21.80;99.90
7461;DHT22;6757;52.258;12.840;2022-09-09T13:27:55;22.10;99.90
7461;DHT22;6757;52.258;12.840;2022-09-09T13:30:26;22.50;99.90
7461;DHT22;6757;52.258;12.840;2022-09-09T13:33:18;22.80;99.90
7461;DHT22;6757;52.258;12.840;2022-09-09T13:35:50;23.00;99.90
7461;DHT22;6757;52.258;12.840;2022-09-09T13:38:21;23.10;99.90
7461;DHT22;6757;52.258;12.840;2022-09-09T13:40:57;23.20;99.90
7461;DHT22;6757;52.258;12.840;2022-09-09T13:43:28;23.50;99.90
7461;DHT22;6757;52.258;12.840;2022-09-09T13:45:59;23.70;99.90
7461;DHT22;6757;52.258;12.840;2022-09-09T13:48:27;23.80;99.90
7461;DHT22;6757;52.258;12.840;2022-09-09T13:51:00;23.90;99.90
7461;DHT22;6757;52.258;12.840;2022-09-09T13:53:31;24.10;99.90
7461;DHT22;6757;52.258;12.840;2022-09-09T13:55:58;24.40;99.90
7461;DHT22;6757;52.258;12.840;2022-09-09T13:58:26;24.50;99.90
7461;DHT22;6757;52.258;12.840;2022-09-09T14:00:53;24.60;99.90
7461;DHT22;6757;52.258;12.840;2022-09-09T14:03:21;24.60;99.90
7461;DHT22;6757;52.258;12.840;2022-09-09T14:05:48;24.60;99.90
7461;DHT22;6757;52.258;12.840;2022-09-09T14:08:27;24.40;99.90
7461;DHT22;6757;52.258;12.840;2022-09-09T14:11:03;24.30;99.90
7461;DHT22;6757;52.258;12.840;2022-09-09T14:13:30;24.20;99.90
7461;DHT22;6757;52.258;12.840;2022-09-09T14:15:57;24.00;99.90
7461;DHT22;6757;52.258;12.840;2022-09-09T14:18:24;24.00;99.90
7461;DHT22;6757;52.258;12.840;2022-09-09T14:20:51;24.10;99.90
7461;DHT22;6757;52.258;12.840;2022-09-09T14:23:18;24.40;99.90
7461;DHT22;6757;52.258;12.840;2022-09-09T14:25:47;24.60;99.90
7461;DHT22;6757;52.258;12.840;2022-09-09T14:28:16;24.90;99.90
7461;DHT22;6757;52.258;12.840;2022-09-09T14:30:43;25.00;99.90
7461;DHT22;6757;52.258;12.840;2022-09-09T14:33:12;25.00;99.90
7461;DHT22;6757;52.258;12.840;2022-09-09T14:35:41;24.90;99.90
7461;DHT22;6757;52.258;12.840;2022-09-09T14:38:08;24.90;99.90
7461;DHT22;6757;52.258;12.840;2022-09-09T14:40:36;25.10;99.90
7461;DHT22;6757;52.258;12.840;2022-09-09T14:43:04;25.70;99.90
7461;DHT22;6757;52.258;12.840;2022-09-09T14:45:35;26.40;99.90
7461;DHT22;6757;52.258;12.840;2022-09-09T14:48:03;27.10;99.90
7461;DHT22;6757;52.258;12.840;2022-09-09T14:50:30;27.80;99.90
7461;DHT22;6757;52.258;12.840;2022-09-09T14:52:57;28.50;99.90
7461;DHT22;6757;52.258;12.840;2022-09-09T14:55:24;29.10;99.90
7461;DHT22;6757;52.258;12.840;2022-09-09T14:57:54;29.70;99.90
7461;DHT22;6757;52.258;12.840;2022-09-09T15:00:20;30.30;98.60
7461;DHT22;6757;52.258;12.840;2022-09-09T15:02:52;30.70;96.40
7461;DHT22;6757;52.258;12.840;2022-09-09T15:05:19;30.70;93.20
7461;DHT22;6757;52.258;12.840;2022-09-09T15:07:46;30.40;91.60
7461;DHT22;6757;52.258;12.840;2022-09-09T15:10:14;30.00;91.30
7461;DHT22;6757;52.258;12.840;2022-09-09T15:12:42;29.60;91.10
7461;DHT22;6757;52.258;12.840;2022-09-09T15:15:10;29.30;90.70
7461;DHT22;6757;52.258;12.840;2022-09-09T15:17:38;29.00;90.50
7461;DHT22;6757;52.258;12.840;2022-09-09T15:20:07;28.80;90.20
7461;DHT22;6757;52.258;12.840;2022-09-09T15:22:35;28.80;89.90
7461;DHT22;6757;52.258;12.840;2022-09-09T15:25:04;29.00;88.80
7461;DHT22;6757;52.258;12.840;2022-09-09T15:27:33;29.20;87.20
7461;DHT22;6757;52.258;12.840;2022-09-09T15:30:00;29.90;86.00
7461;DHT22;6757;52.258;12.840;2022-09-09T15:32:27;29.70;83.80
7461;DHT22;6757;52.258;12.840;2022-09-09T15:34:54;29.80;81.20
7461;DHT22;6757;52.258;12.840;2022-09-09T15:37:23;29.90;80.10
7461;DHT22;6757;52.258;12.840;2022-09-09T15:39:49;29.90;79.10
7461;DHT22;6757;52.258;12.840;2022-09-09T15:42:16;30.00;79.00
7461;DHT22;6757;52.258;12.840;2022-09-09T15:44:43;30.00;77.90
7461;DHT22;6757;52.258;12.840;2022-09-09T15:47:11;30.10;77.30
7461;DHT22;6757;52.258;12.840;2022-09-09T15:49:40;30.00;76.00
7461;DHT22;6757;52.258;12.840;2022-09-09T15:52:10;29.90;74.60
7461;DHT22;6757;52.258;12.840;2022-09-09T15:54:38;29.70;74.60
7461;DHT22;6757;52.258;12.840;2022-09-09T15:57:07;29.70;74.90
7461;DHT22;6757;52.258;12.840;2022-09-09T15:59:37;29.30;74.70
7461;DHT22;6757;52.258;12.840;2022-09-09T16:02:05;28.90;75.10
7461;DHT22;6757;52.258;12.840;2022-09-09T16:04:32;28.40;75.80
7461;DHT22;6757;52.258;12.840;2022-09-09T16:07:01;27.90;76.80
7461;DHT22;6757;52.258;12.840;2022-09-09T16:09:30;27.40;77.70
7461;DHT22;6757;52.258;12.840;2022-09-09T16:11:59;26.90;78.90
7461;DHT22;6757;52.258;12.840;2022-09-09T16:14:28;26.40;80.40
7461;DHT22;6757;52.258;12.840;2022-09-09T16:16:59;26.00;81.80
7461;DHT22;6757;52.258;12.840;2022-09-09T16:19:26;25.60;83.60